»·PEaware :: N19063 KSMX-KBFL

N19063 :: KSMX-KBFL

FLIGHT INFORMATION

Flight Status: Arrived
Operator: Privately registered:
United States
More flights under this callsign
Pilot: Austin L. (19194)
Aircraft: CESSNA 172 SKYHAWK
(C172)
More flights by this aircraft type
Origin: KSMX Santa Maria Pub/Capt Hancock
United States
Destination: KBFL Meadows
United States
More flights between these airports :: More routes between these airports
Route: KSMX KBFL
File this flight plan on PilotEdge
Remarks: Direct
Altitude:
(Current/Filed)
7,500ft
Speed:
(Current/Filed)
120kts
Departed: 16-May-18 10:36 PM
Arrived: 16-May-18 11:21 PM
Distance/Time
Traveled:
76nm/0:45
Distance/Time
To Go:
Arrived

Flight Plot

Page will automatically refresh every two minutes.


Map Options




Map Legend


Flown Route
Filed Route
Departure Airport
Arrival Airport
Navaid (VOR, NDB)
Fix

Horizontal Profiles

Position Reports

Time Latitude Longitude Heading Altitude Ground
Speed
16-May-18 22:27 34.893975 -120.442959 252 265ft 0kts
16-May-18 22:28 34.893975 -120.442959 252 265ft 0kts
16-May-18 22:29 34.893975 -120.442959 252 265ft 0kts
16-May-18 22:30 34.893974 -120.442964 253 265ft 0kts
16-May-18 22:31 34.893974 -120.442964 253 265ft 0kts
16-May-18 22:32 34.893974 -120.442964 253 265ft 0kts
16-May-18 22:33 34.893974 -120.442964 253 265ft 0kts
16-May-18 22:34 34.893704 -120.444932 190 265ft 15kts
16-May-18 22:35 34.893201 -120.444959 181 265ft 0kts
16-May-18 22:36 34.896633 -120.450339 316 370ft 73kts
16-May-18 22:37 34.910905 -120.467891 313 1485ft 73kts
16-May-18 22:38 34.926614 -120.482394 10 2512ft 81kts
16-May-18 22:39 34.938785 -120.457113 60 3470ft 91kts
16-May-18 22:40 34.948939 -120.428414 60 4371ft 93kts
16-May-18 22:41 34.959417 -120.399152 60 5216ft 95kts
16-May-18 22:42 34.970119 -120.369386 60 6008ft 97kts
16-May-18 22:43 34.980990 -120.339182 60 6749ft 98kts
16-May-18 22:44 34.992112 -120.308282 60 7445ft 100kts
16-May-18 22:45 35.005536 -120.270812 62 7490ft 132kts
16-May-18 22:46 35.019977 -120.230193 62 7489ft 126kts
16-May-18 22:47 35.033936 -120.191316 62 7488ft 127kts
16-May-18 22:48 35.048185 -120.151676 62 7486ft 127kts
16-May-18 22:49 35.062438 -120.111884 63 7512ft 125kts
16-May-18 22:50 35.076508 -120.072641 63 7558ft 129kts
16-May-18 22:51 35.091016 -120.032025 63 7558ft 130kts
16-May-18 22:52 35.105387 -119.991808 63 7558ft 131kts
16-May-18 22:53 35.119990 -119.950922 63 7558ft 131kts
16-May-18 22:54 35.134571 -119.910021 63 7558ft 131kts
16-May-18 22:55 35.149109 -119.869178 63 7558ft 131kts
16-May-18 22:56 35.163655 -119.828261 63 7557ft 131kts
16-May-18 22:57 35.178197 -119.787299 63 7556ft 131kts
16-May-18 22:58 35.192703 -119.746386 64 7553ft 131kts
16-May-18 22:59 35.207186 -119.705468 63 7541ft 131kts
16-May-18 23:00 35.221647 -119.664569 62 7526ft 130kts
16-May-18 23:01 35.236009 -119.623900 62 7514ft 129kts
16-May-18 23:02 35.250144 -119.583653 62 7504ft 128kts
16-May-18 23:03 35.264286 -119.543421 62 7496ft 128kts
16-May-18 23:04 35.278299 -119.503586 62 7491ft 127kts
16-May-18 23:05 35.292279 -119.463803 62 7491ft 126kts
16-May-18 23:06 35.304989 -119.427341 61 7035ft 112kts
16-May-18 23:07 35.317713 -119.391101 62 6544ft 117kts
16-May-18 23:08 35.330055 -119.356085 58 6001ft 102kts
16-May-18 23:09 35.326681 -119.321925 74 5401ft 99kts
16-May-18 23:10 35.331680 -119.289086 76 4801ft 98kts
16-May-18 23:11 35.334485 -119.255497 82 4202ft 99kts
16-May-18 23:12 35.348325 -119.228870 44 3602ft 94kts
16-May-18 23:13 35.351360 -119.196834 107 2999ft 101kts
16-May-18 23:14 35.340382 -119.164946 109 2409ft 101kts
16-May-18 23:15 35.347737 -119.134976 43 1909ft 97kts
16-May-18 23:16 35.366410 -119.110289 51 1467ft 99kts
16-May-18 23:17 35.379966 -119.085140 46 1380ft 82kts
16-May-18 23:18 35.393994 -119.066451 34 994ft 74kts
16-May-18 23:19 35.409898 -119.053835 30 825ft 64kts
16-May-18 23:20 35.425640 -119.049710 315 613ft 69kts
16-May-18 23:21 35.434439 -119.060468 310 483ft 6kts
16-May-18 23:22 35.436236 -119.058175 64 491ft 10kts
16-May-18 23:23 35.433958 -119.054068 135 492ft 26kts
16-May-18 23:24 35.429925 -119.048277 69 492ft 0kts
16-May-18 23:25 35.429968 -119.048121 80 493ft 4kts

Navigation Log

Ident Type
1. KSMX Airport
2. KBFL Airport